sensor_id;sensor_type;location;lat;lon;timestamp;P1;durP1;ratioP1;P2;durP2;ratioP2
21128;SDS011;10722;51.910;8.352;2023-11-21T00:00:34;42.70;;;24.57;;
21128;SDS011;10722;51.910;8.352;2023-11-21T00:03:19;45.53;;;25.33;;
21128;SDS011;10722;51.910;8.352;2023-11-21T00:06:04;45.27;;;25.37;;
21128;SDS011;10722;51.910;8.352;2023-11-21T00:08:49;43.67;;;25.33;;
21128;SDS011;10722;51.910;8.352;2023-11-21T00:11:34;44.63;;;25.03;;
21128;SDS011;10722;51.910;8.352;2023-11-21T00:14:19;40.10;;;24.07;;
21128;SDS011;10722;51.910;8.352;2023-11-21T00:17:05;46.23;;;25.53;;
21128;SDS011;10722;51.910;8.352;2023-11-21T00:19:51;40.37;;;24.20;;
21128;SDS011;10722;51.910;8.352;2023-11-21T00:22:35;39.07;;;22.97;;
21128;SDS011;10722;51.910;8.352;2023-11-21T00:25:21;42.70;;;24.60;;
21128;SDS011;10722;51.910;8.352;2023-11-21T00:28:07;42.93;;;25.17;;
21128;SDS011;10722;51.910;8.352;2023-11-21T00:30:52;42.40;;;23.30;;
21128;SDS011;10722;51.910;8.352;2023-11-21T00:33:37;39.93;;;22.27;;
21128;SDS011;10722;51.910;8.352;2023-11-21T00:36:22;37.93;;;22.73;;
21128;SDS011;10722;51.910;8.352;2023-11-21T00:39:07;44.73;;;24.73;;
21128;SDS011;10722;51.910;8.352;2023-11-21T00:41:52;38.60;;;23.83;;
21128;SDS011;10722;51.910;8.352;2023-11-21T00:44:37;45.40;;;25.63;;
21128;SDS011;10722;51.910;8.352;2023-11-21T00:47:23;40.03;;;24.27;;
21128;SDS011;10722;51.910;8.352;2023-11-21T00:50:08;44.53;;;25.00;;
21128;SDS011;10722;51.910;8.352;2023-11-21T00:52:54;44.07;;;24.23;;
21128;SDS011;10722;51.910;8.352;2023-11-21T00:55:39;42.00;;;23.63;;
21128;SDS011;10722;51.910;8.352;2023-11-21T00:58:24;45.57;;;25.10;;
21128;SDS011;10722;51.910;8.352;2023-11-21T01:01:10;41.47;;;24.10;;
21128;SDS011;10722;51.910;8.352;2023-11-21T01:03:55;41.63;;;23.83;;
21128;SDS011;10722;51.910;8.352;2023-11-21T01:06:41;40.77;;;25.27;;
21128;SDS011;10722;51.910;8.352;2023-11-21T01:09:26;41.87;;;24.57;;
21128;SDS011;10722;51.910;8.352;2023-11-21T01:12:11;43.37;;;25.90;;
21128;SDS011;10722;51.910;8.352;2023-11-21T01:14:55;42.23;;;24.87;;
21128;SDS011;10722;51.910;8.352;2023-11-21T01:17:41;44.13;;;25.90;;
21128;SDS011;10722;51.910;8.352;2023-11-21T01:20:26;45.73;;;24.00;;
21128;SDS011;10722;51.910;8.352;2023-11-21T01:23:12;44.57;;;25.10;;
21128;SDS011;10722;51.910;8.352;2023-11-21T01:25:57;41.93;;;25.17;;
21128;SDS011;10722;51.910;8.352;2023-11-21T01:28:42;46.03;;;25.53;;
21128;SDS011;10722;51.910;8.352;2023-11-21T01:31:27;44.37;;;25.37;;
21128;SDS011;10722;51.910;8.352;2023-11-21T01:34:13;44.27;;;24.63;;
21128;SDS011;10722;51.910;8.352;2023-11-21T01:36:58;44.73;;;25.43;;
21128;SDS011;10722;51.910;8.352;2023-11-21T01:39:43;44.30;;;25.80;;
21128;SDS011;10722;51.910;8.352;2023-11-21T01:42:29;46.33;;;26.37;;
21128;SDS011;10722;51.910;8.352;2023-11-21T01:45:14;41.13;;;24.93;;
21128;SDS011;10722;51.910;8.352;2023-11-21T01:47:59;45.07;;;25.57;;
21128;SDS011;10722;51.910;8.352;2023-11-21T01:50:45;45.50;;;26.53;;
21128;SDS011;10722;51.910;8.352;2023-11-21T01:53:30;45.37;;;25.83;;
21128;SDS011;10722;51.910;8.352;2023-11-21T01:56:15;47.27;;;27.30;;
21128;SDS011;10722;51.910;8.352;2023-11-21T01:59:01;46.63;;;26.63;;
21128;SDS011;10722;51.910;8.352;2023-11-21T02:01:46;46.37;;;26.50;;
21128;SDS011;10722;51.910;8.352;2023-11-21T02:04:32;52.47;;;28.80;;
21128;SDS011;10722;51.910;8.352;2023-11-21T02:07:18;47.43;;;26.77;;
21128;SDS011;10722;51.910;8.352;2023-11-21T02:10:03;41.83;;;26.07;;
21128;SDS011;10722;51.910;8.352;2023-11-21T02:12:49;51.50;;;27.63;;
21128;SDS011;10722;51.910;8.352;2023-11-21T02:15:34;45.13;;;25.60;;
21128;SDS011;10722;51.910;8.352;2023-11-21T02:18:19;47.33;;;26.63;;
21128;SDS011;10722;51.910;8.352;2023-11-21T02:21:04;45.80;;;26.57;;
21128;SDS011;10722;51.910;8.352;2023-11-21T02:23:50;46.30;;;26.67;;
21128;SDS011;10722;51.910;8.352;2023-11-21T02:26:35;50.87;;;26.87;;
21128;SDS011;10722;51.910;8.352;2023-11-21T02:29:20;48.40;;;26.77;;
21128;SDS011;10722;51.910;8.352;2023-11-21T02:32:06;44.60;;;27.00;;
21128;SDS011;10722;51.910;8.352;2023-11-21T02:34:51;45.57;;;25.57;;
21128;SDS011;10722;51.910;8.352;2023-11-21T02:37:36;47.23;;;26.13;;
21128;SDS011;10722;51.910;8.352;2023-11-21T02:40:21;47.00;;;26.00;;
21128;SDS011;10722;51.910;8.352;2023-11-21T02:43:06;52.87;;;28.40;;
21128;SDS011;10722;51.910;8.352;2023-11-21T02:45:51;50.77;;;29.03;;
21128;SDS011;10722;51.910;8.352;2023-11-21T02:48:36;49.30;;;26.47;;
21128;SDS011;10722;51.910;8.352;2023-11-21T02:51:21;55.47;;;28.60;;
21128;SDS011;10722;51.910;8.352;2023-11-21T02:54:06;59.37;;;30.33;;
21128;SDS011;10722;51.910;8.352;2023-11-21T02:56:51;59.00;;;30.00;;
21128;SDS011;10722;51.910;8.352;2023-11-21T02:59:36;60.70;;;31.60;;
21128;SDS011;10722;51.910;8.352;2023-11-21T03:02:21;63.47;;;32.37;;
21128;SDS011;10722;51.910;8.352;2023-11-21T03:05:06;55.63;;;30.67;;
21128;SDS011;10722;51.910;8.352;2023-11-21T03:07:52;55.27;;;29.90;;
21128;SDS011;10722;51.910;8.352;2023-11-21T03:10:37;54.33;;;29.80;;
21128;SDS011;10722;51.910;8.352;2023-11-21T03:13:22;52.40;;;29.83;;
21128;SDS011;10722;51.910;8.352;2023-11-21T03:16:08;53.33;;;29.63;;
21128;SDS011;10722;51.910;8.352;2023-11-21T03:18:54;53.57;;;28.70;;
21128;SDS011;10722;51.910;8.352;2023-11-21T03:21:39;48.63;;;29.80;;
21128;SDS011;10722;51.910;8.352;2023-11-21T03:24:24;52.70;;;29.40;;
21128;SDS011;10722;51.910;8.352;2023-11-21T03:27:10;53.03;;;29.30;;
21128;SDS011;10722;51.910;8.352;2023-11-21T03:29:55;51.10;;;31.33;;
21128;SDS011;10722;51.910;8.352;2023-11-21T03:32:39;54.90;;;32.33;;
21128;SDS011;10722;51.910;8.352;2023-11-21T03:35:24;55.60;;;33.37;;
21128;SDS011;10722;51.910;8.352;2023-11-21T03:38:09;56.13;;;32.90;;
21128;SDS011;10722;51.910;8.352;2023-11-21T03:40:55;57.80;;;34.37;;
21128;SDS011;10722;51.910;8.352;2023-11-21T03:43:40;55.97;;;33.60;;
21128;SDS011;10722;51.910;8.352;2023-11-21T03:46:25;58.73;;;33.63;;
21128;SDS011;10722;51.910;8.352;2023-11-21T03:49:10;56.77;;;33.13;;
21128;SDS011;10722;51.910;8.352;2023-11-21T03:51:55;64.57;;;33.20;;
21128;SDS011;10722;51.910;8.352;2023-11-21T03:54:40;56.33;;;32.67;;
21128;SDS011;10722;51.910;8.352;2023-11-21T03:57:25;66.37;;;32.43;;
21128;SDS011;10722;51.910;8.352;2023-11-21T04:00:11;54.87;;;32.03;;
21128;SDS011;10722;51.910;8.352;2023-11-21T04:02:57;54.10;;;31.83;;
21128;SDS011;10722;51.910;8.352;2023-11-21T04:05:42;51.47;;;30.87;;
21128;SDS011;10722;51.910;8.352;2023-11-21T04:08:27;58.53;;;32.97;;
21128;SDS011;10722;51.910;8.352;2023-11-21T04:11:12;55.33;;;31.60;;
21128;SDS011;10722;51.910;8.352;2023-11-21T04:13:57;54.13;;;31.27;;
21128;SDS011;10722;51.910;8.352;2023-11-21T04:16:42;52.80;;;31.70;;
21128;SDS011;10722;51.910;8.352;2023-11-21T04:19:27;57.83;;;32.50;;
21128;SDS011;10722;51.910;8.352;2023-11-21T04:22:13;53.97;;;32.43;;
21128;SDS011;10722;51.910;8.352;2023-11-21T04:24:58;57.60;;;32.63;;
21128;SDS011;10722;51.910;8.352;2023-11-21T04:27:43;58.93;;;33.83;;
21128;SDS011;10722;51.910;8.352;2023-11-21T04:30:29;62.57;;;35.30;;
21128;SDS011;10722;51.910;8.352;2023-11-21T04:33:14;61.73;;;34.50;;
21128;SDS011;10722;51.910;8.352;2023-11-21T04:35:59;55.70;;;32.30;;
21128;SDS011;10722;51.910;8.352;2023-11-21T04:38:45;53.20;;;31.60;;
21128;SDS011;10722;51.910;8.352;2023-11-21T04:41:30;54.10;;;31.13;;
21128;SDS011;10722;51.910;8.352;2023-11-21T04:44:14;57.53;;;31.57;;
21128;SDS011;10722;51.910;8.352;2023-11-21T04:46:59;57.67;;;32.47;;
21128;SDS011;10722;51.910;8.352;2023-11-21T04:49:45;58.90;;;34.97;;
21128;SDS011;10722;51.910;8.352;2023-11-21T04:52:30;56.67;;;34.53;;
21128;SDS011;10722;51.910;8.352;2023-11-21T04:55:15;61.93;;;35.57;;
21128;SDS011;10722;51.910;8.352;2023-11-21T04:58:00;63.83;;;36.27;;
21128;SDS011;10722;51.910;8.352;2023-11-21T05:00:45;64.10;;;35.80;;
21128;SDS011;10722;51.910;8.352;2023-11-21T05:03:30;64.00;;;35.97;;
21128;SDS011;10722;51.910;8.352;2023-11-21T05:06:15;60.97;;;36.00;;
21128;SDS011;10722;51.910;8.352;2023-11-21T05:09:00;66.93;;;35.60;;
21128;SDS011;10722;51.910;8.352;2023-11-21T05:11:46;67.00;;;37.53;;
21128;SDS011;10722;51.910;8.352;2023-11-21T05:14:31;70.60;;;37.23;;
21128;SDS011;10722;51.910;8.352;2023-11-21T05:17:16;62.97;;;36.70;;
21128;SDS011;10722;51.910;8.352;2023-11-21T05:20:01;66.23;;;35.67;;
21128;SDS011;10722;51.910;8.352;2023-11-21T05:22:47;65.37;;;35.83;;
21128;SDS011;10722;51.910;8.352;2023-11-21T05:25:33;67.30;;;36.03;;
21128;SDS011;10722;51.910;8.352;2023-11-21T05:28:20;61.40;;;35.27;;
21128;SDS011;10722;51.910;8.352;2023-11-21T05:31:05;64.10;;;36.17;;
21128;SDS011;10722;51.910;8.352;2023-11-21T05:34:00;68.93;;;38.20;;
21128;SDS011;10722;51.910;8.352;2023-11-21T05:36:45;64.30;;;37.70;;
21128;SDS011;10722;51.910;8.352;2023-11-21T05:39:30;75.97;;;37.00;;
21128;SDS011;10722;51.910;8.352;2023-11-21T05:42:15;69.67;;;39.87;;
21128;SDS011;10722;51.910;8.352;2023-11-21T05:45:00;75.47;;;38.27;;
21128;SDS011;10722;51.910;8.352;2023-11-21T05:47:45;59.37;;;33.03;;
21128;SDS011;10722;51.910;8.352;2023-11-21T05:50:32;65.37;;;33.00;;
21128;SDS011;10722;51.910;8.352;2023-11-21T05:53:16;66.47;;;34.90;;
21128;SDS011;10722;51.910;8.352;2023-11-21T05:56:01;70.60;;;37.77;;
21128;SDS011;10722;51.910;8.352;2023-11-21T05:58:46;73.47;;;37.30;;
21128;SDS011;10722;51.910;8.352;2023-11-21T06:01:32;71.23;;;38.17;;
21128;SDS011;10722;51.910;8.352;2023-11-21T06:04:17;73.20;;;39.57;;
21128;SDS011;10722;51.910;8.352;2023-11-21T06:07:03;67.37;;;37.63;;
21128;SDS011;10722;51.910;8.352;2023-11-21T06:09:48;76.07;;;37.40;;
21128;SDS011;10722;51.910;8.352;2023-11-21T06:12:33;69.13;;;37.00;;
21128;SDS011;10722;51.910;8.352;2023-11-21T06:15:18;63.93;;;36.73;;
21128;SDS011;10722;51.910;8.352;2023-11-21T06:18:03;63.40;;;36.47;;
21128;SDS011;10722;51.910;8.352;2023-11-21T06:20:48;66.93;;;35.93;;
21128;SDS011;10722;51.910;8.352;2023-11-21T06:23:33;58.43;;;34.93;;
21128;SDS011;10722;51.910;8.352;2023-11-21T06:26:18;60.70;;;33.50;;
21128;SDS011;10722;51.910;8.352;2023-11-21T06:29:03;68.73;;;34.10;;
21128;SDS011;10722;51.910;8.352;2023-11-21T06:31:49;67.37;;;36.83;;
21128;SDS011;10722;51.910;8.352;2023-11-21T06:34:34;61.90;;;36.60;;
21128;SDS011;10722;51.910;8.352;2023-11-21T06:37:19;63.07;;;36.77;;
21128;SDS011;10722;51.910;8.352;2023-11-21T06:40:05;72.63;;;40.03;;
21128;SDS011;10722;51.910;8.352;2023-11-21T06:42:51;62.43;;;35.73;;
21128;SDS011;10722;51.910;8.352;2023-11-21T06:45:36;58.90;;;34.07;;
21128;SDS011;10722;51.910;8.352;2023-11-21T06:48:21;59.97;;;33.77;;
21128;SDS011;10722;51.910;8.352;2023-11-21T06:51:07;61.77;;;35.77;;
21128;SDS011;10722;51.910;8.352;2023-11-21T06:53:51;70.67;;;35.43;;
21128;SDS011;10722;51.910;8.352;2023-11-21T06:56:36;70.90;;;37.07;;
21128;SDS011;10722;51.910;8.352;2023-11-21T06:59:21;72.50;;;37.67;;
21128;SDS011;10722;51.910;8.352;2023-11-21T07:02:06;65.63;;;35.63;;
21128;SDS011;10722;51.910;8.352;2023-11-21T07:04:51;64.63;;;36.00;;
21128;SDS011;10722;51.910;8.352;2023-11-21T07:07:36;66.07;;;35.70;;
21128;SDS011;10722;51.910;8.352;2023-11-21T07:10:22;66.97;;;36.30;;
21128;SDS011;10722;51.910;8.352;2023-11-21T07:13:07;60.10;;;36.27;;
21128;SDS011;10722;51.910;8.352;2023-11-21T07:15:52;78.03;;;38.10;;
21128;SDS011;10722;51.910;8.352;2023-11-21T07:18:37;67.40;;;36.13;;
21128;SDS011;10722;51.910;8.352;2023-11-21T07:21:22;63.97;;;36.23;;
21128;SDS011;10722;51.910;8.352;2023-11-21T07:24:07;64.23;;;36.97;;
21128;SDS011;10722;51.910;8.352;2023-11-21T07:26:53;81.63;;;40.37;;
21128;SDS011;10722;51.910;8.352;2023-11-21T07:29:37;84.77;;;43.23;;
21128;SDS011;10722;51.910;8.352;2023-11-21T07:32:22;79.90;;;42.53;;
21128;SDS011;10722;51.910;8.352;2023-11-21T07:35:07;90.33;;;43.50;;
21128;SDS011;10722;51.910;8.352;2023-11-21T07:37:53;90.37;;;44.70;;
21128;SDS011;10722;51.910;8.352;2023-11-21T07:40:38;84.97;;;44.27;;
21128;SDS011;10722;51.910;8.352;2023-11-21T07:43:23;89.40;;;46.03;;
21128;SDS011;10722;51.910;8.352;2023-11-21T07:46:08;88.27;;;45.13;;
21128;SDS011;10722;51.910;8.352;2023-11-21T07:48:53;95.43;;;46.07;;
21128;SDS011;10722;51.910;8.352;2023-11-21T07:51:38;86.73;;;44.03;;
21128;SDS011;10722;51.910;8.352;2023-11-21T07:54:23;89.43;;;44.70;;
21128;SDS011;10722;51.910;8.352;2023-11-21T07:57:09;126.97;;;48.23;;
21128;SDS011;10722;51.910;8.352;2023-11-21T07:59:53;106.53;;;47.43;;
21128;SDS011;10722;51.910;8.352;2023-11-21T08:02:39;110.47;;;50.57;;
21128;SDS011;10722;51.910;8.352;2023-11-21T08:05:24;193.23;;;102.63;;
21128;SDS011;10722;51.910;8.352;2023-11-21T08:08:21;117.37;;;50.13;;
21128;SDS011;10722;51.910;8.352;2023-11-21T08:11:06;116.97;;;48.50;;
21128;SDS011;10722;51.910;8.352;2023-11-21T08:13:51;107.60;;;48.27;;
21128;SDS011;10722;51.910;8.352;2023-11-21T08:16:36;110.93;;;48.63;;
21128;SDS011;10722;51.910;8.352;2023-11-21T08:19:21;127.47;;;50.07;;
21128;SDS011;10722;51.910;8.352;2023-11-21T08:22:07;129.40;;;49.00;;
21128;SDS011;10722;51.910;8.352;2023-11-21T08:24:51;107.83;;;47.17;;
21128;SDS011;10722;51.910;8.352;2023-11-21T08:27:36;107.43;;;45.80;;
21128;SDS011;10722;51.910;8.352;2023-11-21T08:30:22;109.43;;;46.00;;
21128;SDS011;10722;51.910;8.352;2023-11-21T08:33:07;107.67;;;44.57;;
21128;SDS011;10722;51.910;8.352;2023-11-21T08:35:53;110.20;;;46.27;;
21128;SDS011;10722;51.910;8.352;2023-11-21T08:38:38;109.10;;;45.87;;
21128;SDS011;10722;51.910;8.352;2023-11-21T08:41:23;144.87;;;67.67;;
21128;SDS011;10722;51.910;8.352;2023-11-21T08:44:08;118.60;;;50.57;;
21128;SDS011;10722;51.910;8.352;2023-11-21T08:46:53;111.17;;;45.13;;
21128;SDS011;10722;51.910;8.352;2023-11-21T08:49:39;129.27;;;44.10;;
21128;SDS011;10722;51.910;8.352;2023-11-21T08:52:24;112.63;;;42.80;;
21128;SDS011;10722;51.910;8.352;2023-11-21T08:55:09;102.77;;;42.90;;
21128;SDS011;10722;51.910;8.352;2023-11-21T08:57:53;109.10;;;43.73;;
21128;SDS011;10722;51.910;8.352;2023-11-21T09:00:39;104.17;;;41.80;;
21128;SDS011;10722;51.910;8.352;2023-11-21T09:03:24;104.50;;;41.20;;
21128;SDS011;10722;51.910;8.352;2023-11-21T09:06:11;94.57;;;40.57;;
21128;SDS011;10722;51.910;8.352;2023-11-21T09:08:57;90.83;;;39.50;;
21128;SDS011;10722;51.910;8.352;2023-11-21T09:11:42;100.17;;;39.17;;
21128;SDS011;10722;51.910;8.352;2023-11-21T09:14:27;88.47;;;38.60;;
21128;SDS011;10722;51.910;8.352;2023-11-21T09:17:12;89.23;;;37.10;;
21128;SDS011;10722;51.910;8.352;2023-11-21T09:19:58;95.80;;;37.43;;
21128;SDS011;10722;51.910;8.352;2023-11-21T09:22:44;87.83;;;36.53;;
21128;SDS011;10722;51.910;8.352;2023-11-21T09:25:29;86.50;;;35.73;;
21128;SDS011;10722;51.910;8.352;2023-11-21T09:28:14;101.33;;;38.00;;
21128;SDS011;10722;51.910;8.352;2023-11-21T09:30:59;102.13;;;38.40;;
21128;SDS011;10722;51.910;8.352;2023-11-21T09:33:44;93.77;;;35.43;;
21128;SDS011;10722;51.910;8.352;2023-11-21T09:36:29;90.07;;;34.93;;
21128;SDS011;10722;51.910;8.352;2023-11-21T09:39:14;94.83;;;34.90;;
21128;SDS011;10722;51.910;8.352;2023-11-21T09:42:01;95.93;;;34.63;;
21128;SDS011;10722;51.910;8.352;2023-11-21T09:48:01;90.37;;;32.63;;
21128;SDS011;10722;51.910;8.352;2023-11-21T09:50:47;83.87;;;30.87;;
21128;SDS011;10722;51.910;8.352;2023-11-21T09:53:36;80.63;;;29.20;;
21128;SDS011;10722;51.910;8.352;2023-11-21T09:56:21;74.57;;;28.17;;
21128;SDS011;10722;51.910;8.352;2023-11-21T09:59:06;83.90;;;30.00;;
21128;SDS011;10722;51.910;8.352;2023-11-21T10:01:52;71.13;;;28.47;;
21128;SDS011;10722;51.910;8.352;2023-11-21T10:04:38;76.97;;;27.10;;
21128;SDS011;10722;51.910;8.352;2023-11-21T10:07:23;76.20;;;27.40;;
21128;SDS011;10722;51.910;8.352;2023-11-21T10:10:08;74.30;;;26.23;;
21128;SDS011;10722;51.910;8.352;2023-11-21T10:12:57;81.93;;;26.17;;
21128;SDS011;10722;51.910;8.352;2023-11-21T10:15:49;83.80;;;26.20;;
21128;SDS011;10722;51.910;8.352;2023-11-21T10:18:35;68.27;;;24.03;;
21128;SDS011;10722;51.910;8.352;2023-11-21T10:21:21;63.83;;;23.13;;
21128;SDS011;10722;51.910;8.352;2023-11-21T10:24:06;68.97;;;24.10;;
21128;SDS011;10722;51.910;8.352;2023-11-21T10:26:51;57.93;;;22.17;;
21128;SDS011;10722;51.910;8.352;2023-11-21T10:29:41;41.37;;;17.93;;
21128;SDS011;10722;51.910;8.352;2023-11-21T10:32:29;43.40;;;19.10;;
21128;SDS011;10722;51.910;8.352;2023-11-21T10:35:14;43.27;;;18.53;;
21128;SDS011;10722;51.910;8.352;2023-11-21T10:38:00;40.70;;;17.87;;
21128;SDS011;10722;51.910;8.352;2023-11-21T10:40:45;33.93;;;15.87;;
21128;SDS011;10722;51.910;8.352;2023-11-21T10:43:30;34.63;;;15.63;;
21128;SDS011;10722;51.910;8.352;2023-11-21T10:46:16;34.00;;;16.90;;
21128;SDS011;10722;51.910;8.352;2023-11-21T10:49:02;43.43;;;22.33;;
21128;SDS011;10722;51.910;8.352;2023-11-21T10:51:47;30.80;;;15.80;;
21128;SDS011;10722;51.910;8.352;2023-11-21T10:54:32;31.20;;;15.30;;
21128;SDS011;10722;51.910;8.352;2023-11-21T10:57:17;26.00;;;13.30;;
21128;SDS011;10722;51.910;8.352;2023-11-21T11:00:03;26.37;;;12.37;;
21128;SDS011;10722;51.910;8.352;2023-11-21T11:02:50;26.53;;;13.03;;
21128;SDS011;10722;51.910;8.352;2023-11-21T11:05:37;23.20;;;12.43;;
21128;SDS011;10722;51.910;8.352;2023-11-21T11:08:22;24.20;;;12.43;;
21128;SDS011;10722;51.910;8.352;2023-11-21T11:11:08;29.00;;;12.77;;
21128;SDS011;10722;51.910;8.352;2023-11-21T11:13:54;25.97;;;13.60;;
21128;SDS011;10722;51.910;8.352;2023-11-21T11:16:41;23.60;;;12.20;;
21128;SDS011;10722;51.910;8.352;2023-11-21T11:19:26;23.23;;;11.10;;
21128;SDS011;10722;51.910;8.352;2023-11-21T11:22:16;24.40;;;12.50;;
21128;SDS011;10722;51.910;8.352;2023-11-21T11:25:25;25.77;;;12.33;;
21128;SDS011;10722;51.910;8.352;2023-11-21T11:28:14;26.23;;;12.63;;
21128;SDS011;10722;51.910;8.352;2023-11-21T11:31:26;25.40;;;12.63;;
21128;SDS011;10722;51.910;8.352;2023-11-21T11:34:24;26.53;;;12.90;;
21128;SDS011;10722;51.910;8.352;2023-11-21T11:37:15;23.07;;;11.13;;
21128;SDS011;10722;51.910;8.352;2023-11-21T11:40:00;24.50;;;11.07;;
21128;SDS011;10722;51.910;8.352;2023-11-21T11:43:00;25.63;;;10.93;;
21128;SDS011;10722;51.910;8.352;2023-11-21T11:45:46;23.33;;;11.13;;
21128;SDS011;10722;51.910;8.352;2023-11-21T11:48:34;23.63;;;10.67;;
21128;SDS011;10722;51.910;8.352;2023-11-21T11:51:22;21.37;;;10.03;;
21128;SDS011;10722;51.910;8.352;2023-11-21T11:54:07;22.30;;;10.43;;
21128;SDS011;10722;51.910;8.352;2023-11-21T11:56:52;21.17;;;10.20;;
21128;SDS011;10722;51.910;8.352;2023-11-21T12:02:55;21.97;;;10.93;;
21128;SDS011;10722;51.910;8.352;2023-11-21T12:05:42;22.87;;;11.40;;
21128;SDS011;10722;51.910;8.352;2023-11-21T12:08:28;20.40;;;10.00;;
21128;SDS011;10722;51.910;8.352;2023-11-21T12:11:13;19.07;;;9.50;;
21128;SDS011;10722;51.910;8.352;2023-11-21T12:13:58;19.47;;;9.63;;
21128;SDS011;10722;51.910;8.352;2023-11-21T12:16:43;17.80;;;8.43;;
21128;SDS011;10722;51.910;8.352;2023-11-21T12:19:29;18.63;;;9.13;;
21128;SDS011;10722;51.910;8.352;2023-11-21T12:22:14;19.77;;;9.30;;
21128;SDS011;10722;51.910;8.352;2023-11-21T12:25:00;19.53;;;10.03;;
21128;SDS011;10722;51.910;8.352;2023-11-21T12:27:46;21.50;;;11.30;;
21128;SDS011;10722;51.910;8.352;2023-11-21T12:30:33;22.23;;;11.87;;
21128;SDS011;10722;51.910;8.352;2023-11-21T12:33:19;24.33;;;13.40;;
21128;SDS011;10722;51.910;8.352;2023-11-21T12:36:04;22.67;;;12.17;;
21128;SDS011;10722;51.910;8.352;2023-11-21T12:38:49;24.53;;;12.93;;
21128;SDS011;10722;51.910;8.352;2023-11-21T12:41:35;27.13;;;13.67;;
21128;SDS011;10722;51.910;8.352;2023-11-21T12:44:20;26.97;;;14.83;;
21128;SDS011;10722;51.910;8.352;2023-11-21T12:47:05;27.63;;;14.67;;
21128;SDS011;10722;51.910;8.352;2023-11-21T12:49:50;26.23;;;13.90;;
21128;SDS011;10722;51.910;8.352;2023-11-21T12:52:35;27.73;;;14.03;;
21128;SDS011;10722;51.910;8.352;2023-11-21T12:55:21;26.17;;;14.37;;
21128;SDS011;10722;51.910;8.352;2023-11-21T12:58:07;27.00;;;14.87;;
21128;SDS011;10722;51.910;8.352;2023-11-21T13:00:54;28.63;;;15.27;;
21128;SDS011;10722;51.910;8.352;2023-11-21T13:03:42;26.10;;;13.97;;
21128;SDS011;10722;51.910;8.352;2023-11-21T13:06:27;27.40;;;14.33;;
21128;SDS011;10722;51.910;8.352;2023-11-21T13:09:13;25.17;;;13.73;;
21128;SDS011;10722;51.910;8.352;2023-11-21T13:12:01;35.37;;;19.67;;
21128;SDS011;10722;51.910;8.352;2023-11-21T13:14:47;24.73;;;14.73;;
21128;SDS011;10722;51.910;8.352;2023-11-21T13:17:32;25.70;;;13.30;;
21128;SDS011;10722;51.910;8.352;2023-11-21T13:20:17;25.57;;;14.10;;
21128;SDS011;10722;51.910;8.352;2023-11-21T13:23:06;24.27;;;12.23;;
21128;SDS011;10722;51.910;8.352;2023-11-21T13:25:53;26.50;;;13.30;;
21128;SDS011;10722;51.910;8.352;2023-11-21T13:28:49;23.47;;;12.33;;
21128;SDS011;10722;51.910;8.352;2023-11-21T13:31:34;22.57;;;12.80;;
21128;SDS011;10722;51.910;8.352;2023-11-21T13:34:19;25.00;;;14.37;;
21128;SDS011;10722;51.910;8.352;2023-11-21T13:37:08;23.07;;;12.50;;
21128;SDS011;10722;51.910;8.352;2023-11-21T13:39:52;20.07;;;11.43;;
21128;SDS011;10722;51.910;8.352;2023-11-21T13:42:37;19.60;;;11.70;;
21128;SDS011;10722;51.910;8.352;2023-11-21T13:45:22;21.33;;;10.87;;
21128;SDS011;10722;51.910;8.352;2023-11-21T13:48:08;21.87;;;11.00;;
21128;SDS011;10722;51.910;8.352;2023-11-21T13:50:54;21.97;;;11.87;;
21128;SDS011;10722;51.910;8.352;2023-11-21T13:53:39;22.40;;;11.97;;
21128;SDS011;10722;51.910;8.352;2023-11-21T13:56:24;21.80;;;11.57;;
21128;SDS011;10722;51.910;8.352;2023-11-21T13:59:09;22.13;;;11.00;;
21128;SDS011;10722;51.910;8.352;2023-11-21T14:01:55;19.70;;;10.73;;
21128;SDS011;10722;51.910;8.352;2023-11-21T14:04:41;21.77;;;11.20;;
21128;SDS011;10722;51.910;8.352;2023-11-21T14:07:26;19.63;;;10.60;;
21128;SDS011;10722;51.910;8.352;2023-11-21T14:10:11;19.67;;;10.33;;
21128;SDS011;10722;51.910;8.352;2023-11-21T14:12:56;18.77;;;9.30;;
21128;SDS011;10722;51.910;8.352;2023-11-21T14:15:42;18.63;;;9.33;;
21128;SDS011;10722;51.910;8.352;2023-11-21T14:18:27;20.13;;;9.63;;
21128;SDS011;10722;51.910;8.352;2023-11-21T14:21:13;22.67;;;9.23;;
21128;SDS011;10722;51.910;8.352;2023-11-21T14:23:58;18.97;;;9.60;;
21128;SDS011;10722;51.910;8.352;2023-11-21T14:26:44;40.63;;;24.03;;
21128;SDS011;10722;51.910;8.352;2023-11-21T14:29:30;20.57;;;11.57;;
21128;SDS011;10722;51.910;8.352;2023-11-21T14:32:15;20.53;;;10.60;;
21128;SDS011;10722;51.910;8.352;2023-11-21T14:35:00;20.07;;;9.73;;
21128;SDS011;10722;51.910;8.352;2023-11-21T14:37:45;18.10;;;9.40;;
21128;SDS011;10722;51.910;8.352;2023-11-21T14:40:31;18.87;;;9.60;;
21128;SDS011;10722;51.910;8.352;2023-11-21T14:43:16;20.63;;;9.70;;
21128;SDS011;10722;51.910;8.352;2023-11-21T14:46:02;18.37;;;9.70;;
21128;SDS011;10722;51.910;8.352;2023-11-21T14:48:47;20.73;;;9.43;;
21128;SDS011;10722;51.910;8.352;2023-11-21T14:51:32;21.00;;;9.33;;
21128;SDS011;10722;51.910;8.352;2023-11-21T14:54:17;18.20;;;9.30;;
21128;SDS011;10722;51.910;8.352;2023-11-21T14:57:02;19.60;;;9.50;;
21128;SDS011;10722;51.910;8.352;2023-11-21T14:59:48;19.60;;;8.60;;
21128;SDS011;10722;51.910;8.352;2023-11-21T15:02:34;18.70;;;9.27;;
21128;SDS011;10722;51.910;8.352;2023-11-21T15:05:20;16.33;;;8.37;;
21128;SDS011;10722;51.910;8.352;2023-11-21T15:08:05;16.73;;;8.70;;
21128;SDS011;10722;51.910;8.352;2023-11-21T15:10:50;18.63;;;9.80;;
21128;SDS011;10722;51.910;8.352;2023-11-21T15:13:35;17.20;;;8.23;;
21128;SDS011;10722;51.910;8.352;2023-11-21T15:16:20;17.57;;;8.47;;
21128;SDS011;10722;51.910;8.352;2023-11-21T15:19:05;17.60;;;8.37;;
21128;SDS011;10722;51.910;8.352;2023-11-21T15:21:50;16.67;;;8.80;;
21128;SDS011;10722;51.910;8.352;2023-11-21T15:24:35;18.37;;;8.50;;
21128;SDS011;10722;51.910;8.352;2023-11-21T15:27:20;17.20;;;7.90;;
21128;SDS011;10722;51.910;8.352;2023-11-21T15:30:05;17.07;;;8.27;;
21128;SDS011;10722;51.910;8.352;2023-11-21T15:32:51;16.87;;;8.50;;
21128;SDS011;10722;51.910;8.352;2023-11-21T15:35:37;15.53;;;7.60;;
21128;SDS011;10722;51.910;8.352;2023-11-21T15:38:22;18.20;;;8.00;;
21128;SDS011;10722;51.910;8.352;2023-11-21T15:41:07;17.33;;;8.43;;
21128;SDS011;10722;51.910;8.352;2023-11-21T15:43:51;20.97;;;9.97;;
21128;SDS011;10722;51.910;8.352;2023-11-21T15:46:36;18.40;;;8.77;;
21128;SDS011;10722;51.910;8.352;2023-11-21T15:49:22;18.20;;;9.60;;
21128;SDS011;10722;51.910;8.352;2023-11-21T15:52:07;58.53;;;34.83;;
21128;SDS011;10722;51.910;8.352;2023-11-21T15:54:52;19.77;;;10.10;;
21128;SDS011;10722;51.910;8.352;2023-11-21T15:57:37;20.00;;;10.60;;
21128;SDS011;10722;51.910;8.352;2023-11-21T16:00:22;18.73;;;9.97;;
21128;SDS011;10722;51.910;8.352;2023-11-21T16:03:08;20.50;;;10.33;;
21128;SDS011;10722;51.910;8.352;2023-11-21T16:05:53;19.40;;;10.47;;
21128;SDS011;10722;51.910;8.352;2023-11-21T16:08:38;18.73;;;10.43;;
21128;SDS011;10722;51.910;8.352;2023-11-21T16:11:23;21.57;;;10.40;;
21128;SDS011;10722;51.910;8.352;2023-11-21T16:14:08;20.50;;;9.67;;